LiveATC.Net - Listen to live air traffic control over the Internet!


ICAO: 1F0  IATA: 1F0   Airport: Ardmore Downtown Executive Airport
City: Ardmore   State/Province: Oklahoma
Country: United States   Continent: North America
K1F0 METAR Weather: K1F0 260615Z AUTO 16003KT 10SM CLR 21/15 A3018 RMK AO2
1F0 Flight Activity (FlightAware)
1F0 Airport Info   (AirNav) (iFlightPlanner)
1F0 VFR Sectional Chart   (iFlightPlanner) 
1F0 IFR Low Chart   (iFlightPlanner) 
1F0 CTAF (Air Race Classic)
Feed Status: UP   Listeners: 0
Listen right in your browser - requires Flash (in browser, requires Flash)
Click here to listen with your own player (launches your MP3 player)
1F0 CTAF (Air Race Classic) Audio Archives
FacilityFrequency
Ardmore CTAF122.700


NOTICE

Unauthorized use prohibited. See LiveATC.net Terms of Service


Find LiveATC Audio Streams


Airport/ARTCC Code

Frequency Search
(e.g., 124.400, 128.75)
Site-wide search
 


Browse LiveATC Feeds
LiveATC Coverage Map
Top 50 LiveATC Feeds
Bad Weather Areas

LiveATC FAQ
Offer a LiveATC Feed
Contact LiveATC.net
Press Inquiries

LiveATC on iPhone
LiveATC on Android

Windows Phone
Windows 8/10

LiveATC Mobile
(Mobile browser)

ATC Audio Archives
Interesting Recordings

LiveATC Forums


Home Page
About LiveATC.net
Make a Donation
LiveATC Store

Terms of Use
Privacy Policy

Canadian Air Freqs

AIRMETs/SIGMETs

FAA Airport Status
Nat'l Airspace Status
Arrival Demand Charts


Server Software By:
Icecast.org
Liquidsoap